createdAt,value
2017-01-06T00:00:13.757Z,925.72
2017-01-06T00:00:30.950Z,925.73
2017-01-06T00:00:48.168Z,925.77
2017-01-06T00:01:05.350Z,925.8
2017-01-06T00:01:22.552Z,925.72
2017-01-06T00:01:39.760Z,925.74
2017-01-06T00:01:56.965Z,925.73
2017-01-06T00:02:14.169Z,925.71
2017-01-06T00:02:31.350Z,925.74
2017-01-06T00:02:48.561Z,925.7
2017-01-06T00:03:05.774Z,925.74
2017-01-06T00:03:22.990Z,925.77
2017-01-06T00:03:40.179Z,925.78
2017-01-06T00:03:57.365Z,925.76
2017-01-06T00:04:14.563Z,925.74
2017-01-06T00:04:31.760Z,925.74
2017-01-06T00:04:48.975Z,925.7
2017-01-06T00:05:06.177Z,925.75
2017-01-06T00:05:23.380Z,925.75
2017-01-06T00:05:40.565Z,925.74
2017-01-06T00:05:57.757Z,925.75
2017-01-06T00:06:14.923Z,925.73
2017-01-06T00:06:32.114Z,925.74
2017-01-06T00:06:49.277Z,925.72
2017-01-06T00:07:06.471Z,925.74
2017-01-06T00:07:23.655Z,925.8
2017-01-06T00:07:40.872Z,925.78
2017-01-06T00:07:58.117Z,925.78
2017-01-06T00:08:15.300Z,925.78
2017-01-06T00:08:32.515Z,925.75
2017-01-06T00:08:49.721Z,925.81
2017-01-06T00:09:06.908Z,925.8
2017-01-06T00:09:24.116Z,925.82
2017-01-06T00:09:41.326Z,925.82
2017-01-06T00:09:58.549Z,925.74
2017-01-06T00:10:15.731Z,925.74
2017-01-06T00:10:32.914Z,925.8
2017-01-06T00:10:50.113Z,925.77
2017-01-06T00:11:07.322Z,925.74
2017-01-06T00:11:24.510Z,925.8
2017-01-06T00:11:41.731Z,925.78
2017-01-06T00:11:58.881Z,925.76
2017-01-06T00:12:16.083Z,925.79
2017-01-06T00:12:33.304Z,925.81
2017-01-06T00:12:50.538Z,925.78
2017-01-06T00:13:07.739Z,925.8
2017-01-06T00:13:24.945Z,925.77
2017-01-06T00:13:42.156Z,925.75
2017-01-06T00:13:59.350Z,925.8
2017-01-06T00:14:16.564Z,925.8
2017-01-06T00:14:33.754Z,925.8
2017-01-06T00:14:50.931Z,925.81
2017-01-06T00:15:08.366Z,925.86
2017-01-06T00:15:25.545Z,925.87
2017-01-06T00:15:42.710Z,925.83
2017-01-06T00:15:59.899Z,925.83
2017-01-06T00:16:17.081Z,925.83
2017-01-06T00:16:34.291Z,925.9
2017-01-06T00:16:51.493Z,925.87
2017-01-06T00:17:08.674Z,925.88
2017-01-06T00:17:25.899Z,925.91
2017-01-06T00:17:43.084Z,925.92
2017-01-06T00:18:00.273Z,925.88
2017-01-06T00:18:17.464Z,925.9
2017-01-06T00:18:34.649Z,925.92
2017-01-06T00:18:51.845Z,925.9
2017-01-06T00:19:09.050Z,925.88
2017-01-06T00:19:26.230Z,925.91
2017-01-06T00:19:43.440Z,925.9
2017-01-06T00:20:00.626Z,925.88
2017-01-06T00:20:17.826Z,925.89
2017-01-06T00:20:35.031Z,925.85
2017-01-06T00:20:52.236Z,925.84
2017-01-06T00:21:09.429Z,925.85
2017-01-06T00:21:26.638Z,925.89
2017-01-06T00:21:43.840Z,925.88
2017-01-06T00:22:01.030Z,925.87
2017-01-06T00:22:18.901Z,925.86
2017-01-06T00:22:36.058Z,925.87
2017-01-06T00:22:53.252Z,925.89
2017-01-06T00:23:10.453Z,925.87
2017-01-06T00:23:27.644Z,925.89
2017-01-06T00:23:44.837Z,925.92
2017-01-06T00:24:02.071Z,925.88
2017-01-06T00:24:19.293Z,925.93
2017-01-06T00:24:36.487Z,925.91
2017-01-06T00:24:53.698Z,925.92
2017-01-06T00:25:10.953Z,925.94
2017-01-06T00:25:28.149Z,925.95
2017-01-06T00:25:45.323Z,925.96
2017-01-06T00:26:02.549Z,925.95
2017-01-06T00:26:19.751Z,925.92
2017-01-06T00:26:36.985Z,925.97
2017-01-06T00:26:54.165Z,925.98
2017-01-06T00:27:11.412Z,926
2017-01-06T00:27:28.602Z,926.02
2017-01-06T00:27:46.460Z,926.01
2017-01-06T00:28:03.638Z,926.03
2017-01-06T00:28:20.828Z,926.01
2017-01-06T00:28:38.038Z,926.01
2017-01-06T00:28:55.237Z,926.02
2017-01-06T00:29:12.412Z,926.04
2017-01-06T00:29:29.615Z,926.04
2017-01-06T00:29:46.825Z,926.02
2017-01-06T00:30:03.996Z,926.02
2017-01-06T00:30:21.188Z,926.03
2017-01-06T00:30:38.405Z,926.06
2017-01-06T00:30:55.588Z,926.05
2017-01-06T00:31:12.807Z,926.06
2017-01-06T00:31:30.012Z,926.06
2017-01-06T00:31:47.228Z,926.08
2017-01-06T00:32:04.410Z,926.06
2017-01-06T00:32:21.604Z,926.07
2017-01-06T00:32:38.794Z,926.06
2017-01-06T00:32:55.998Z,926.08
2017-01-06T00:33:13.214Z,926.08
2017-01-06T00:33:30.425Z,926.1
2017-01-06T00:33:47.649Z,926.1
2017-01-06T00:34:04.845Z,926.09
2017-01-06T00:34:22.064Z,926.11
2017-01-06T00:34:39.262Z,926.1
2017-01-06T00:34:56.458Z,926.13
2017-01-06T00:35:13.660Z,926.13
2017-01-06T00:35:30.841Z,926.13
2017-01-06T00:35:48.023Z,926.15
2017-01-06T00:36:05.242Z,926.13
2017-01-06T00:36:22.429Z,926.16
2017-01-06T00:36:39.609Z,926.13
2017-01-06T00:36:56.789Z,926.16
2017-01-06T00:37:14.028Z,926.13
2017-01-06T00:37:31.241Z,926.17
2017-01-06T00:37:48.426Z,926.17
2017-01-06T00:38:05.610Z,926.19
2017-01-06T00:38:22.802Z,926.2
2017-01-06T00:38:40.009Z,926.22
2017-01-06T00:38:57.214Z,926.23
2017-01-06T00:39:14.413Z,926.21
2017-01-06T00:39:31.607Z,926.24
2017-01-06T00:39:48.824Z,926.23
2017-01-06T00:40:06.192Z,926.29
2017-01-06T00:40:23.384Z,926.27
2017-01-06T00:40:40.585Z,926.23
2017-01-06T00:40:57.817Z,926.25
2017-01-06T00:41:15.007Z,926.23
2017-01-06T00:41:32.227Z,926.23
2017-01-06T00:41:50.099Z,926.26
2017-01-06T00:42:07.292Z,926.26
2017-01-06T00:42:24.484Z,926.25
2017-01-06T00:42:41.687Z,926.3
2017-01-06T00:42:58.906Z,926.28
2017-01-06T00:43:16.103Z,926.27
2017-01-06T00:43:33.275Z,926.28
2017-01-06T00:43:50.464Z,926.25
2017-01-06T00:44:07.656Z,926.31
2017-01-06T00:44:24.839Z,926.31
2017-01-06T00:44:42.046Z,926.28
2017-01-06T00:44:59.385Z,926.32
2017-01-06T00:45:16.584Z,926.34
2017-01-06T00:45:33.761Z,926.32
2017-01-06T00:45:51.593Z,926.3
2017-01-06T00:46:08.799Z,926.31
2017-01-06T00:46:26.011Z,926.34
2017-01-06T00:46:43.202Z,926.38
2017-01-06T00:47:00.384Z,926.35
2017-01-06T00:47:17.580Z,926.41
2017-01-06T00:47:34.771Z,926.36
2017-01-06T00:47:51.966Z,926.4
2017-01-06T00:48:09.177Z,926.41
2017-01-06T00:48:26.366Z,926.42
2017-01-06T00:48:43.546Z,926.43
2017-01-06T00:49:00.719Z,926.48
2017-01-06T00:49:18.542Z,926.49
2017-01-06T00:49:35.753Z,926.52
2017-01-06T00:49:52.950Z,926.52
2017-01-06T00:50:10.174Z,926.54
2017-01-06T00:50:27.366Z,926.54
2017-01-06T00:50:44.564Z,926.57
2017-01-06T00:51:01.763Z,926.57
2017-01-06T00:51:18.975Z,926.62
2017-01-06T00:51:36.159Z,926.61
2017-01-06T00:51:53.356Z,926.64
2017-01-06T00:52:10.529Z,926.64
2017-01-06T00:52:27.741Z,926.65
2017-01-06T00:52:44.935Z,926.68
2017-01-06T00:53:02.143Z,926.66
2017-01-06T00:53:19.337Z,926.68
2017-01-06T00:53:36.531Z,926.7
2017-01-06T00:53:53.724Z,926.69
2017-01-06T00:54:10.918Z,926.72
2017-01-06T00:54:28.126Z,926.72
2017-01-06T00:54:45.322Z,926.73
2017-01-06T00:55:02.537Z,926.75
2017-01-06T00:55:19.712Z,926.8
2017-01-06T00:55:36.903Z,926.8
2017-01-06T00:55:54.071Z,926.79
2017-01-06T00:56:11.251Z,926.78
2017-01-06T00:56:28.453Z,926.84
2017-01-06T00:56:45.652Z,926.83
2017-01-06T00:57:02.853Z,926.85
2017-01-06T00:57:20.092Z,926.86
2017-01-06T00:57:37.292Z,926.84
2017-01-06T00:57:54.486Z,926.84
2017-01-06T00:58:11.675Z,926.84
2017-01-06T00:58:29.083Z,926.89
2017-01-06T00:58:46.615Z,926.9
2017-01-06T00:59:03.816Z,926.94
2017-01-06T00:59:21.041Z,926.93
2017-01-06T00:59:38.241Z,926.97
2017-01-06T00:59:55.439Z,926.95
2017-01-06T01:00:12.621Z,926.92
2017-01-06T01:00:29.825Z,926.98
2017-01-06T01:00:47.004Z,927
2017-01-06T01:01:04.201Z,926.99
2017-01-06T01:01:21.378Z,927.02
2017-01-06T01:01:38.572Z,927.03
2017-01-06T01:01:55.761Z,927.07
2017-01-06T01:02:12.946Z,926.97
2017-01-06T01:02:30.127Z,927.01
2017-01-06T01:02:47.339Z,927.03
2017-01-06T01:03:04.554Z,927.02
2017-01-06T01:03:21.784Z,927.04
2017-01-06T01:03:38.990Z,927.07
2017-01-06T01:03:56.195Z,927.11
2017-01-06T01:04:13.422Z,927.09
2017-01-06T01:04:30.613Z,927.13
2017-01-06T01:04:47.832Z,927.12
2017-01-06T01:05:05.002Z,927.12
2017-01-06T01:05:22.188Z,927.14
2017-01-06T01:05:39.417Z,927.14
2017-01-06T01:05:56.608Z,927.17
2017-01-06T01:06:13.803Z,927.15
2017-01-06T01:06:30.989Z,927.18
2017-01-06T01:06:48.187Z,927.19
2017-01-06T01:07:05.403Z,927.2
2017-01-06T01:07:22.593Z,927.27
2017-01-06T01:07:39.810Z,927.2
2017-01-06T01:07:57.003Z,927.22
2017-01-06T01:08:14.201Z,927.23
2017-01-06T01:08:31.367Z,927.27
2017-01-06T01:08:48.554Z,927.27
2017-01-06T01:09:05.752Z,927.28
2017-01-06T01:09:22.954Z,927.22
2017-01-06T01:09:40.154Z,927.27
2017-01-06T01:09:57.373Z,927.29
2017-01-06T01:10:14.566Z,927.34
2017-01-06T01:10:31.748Z,927.28
2017-01-06T01:10:48.947Z,927.29
2017-01-06T01:11:06.144Z,927.32
2017-01-06T01:11:23.334Z,927.36
2017-01-06T01:11:40.524Z,927.34
2017-01-06T01:11:57.720Z,927.32
2017-01-06T01:12:14.906Z,927.31
2017-01-06T01:12:32.122Z,927.32
2017-01-06T01:12:49.300Z,927.3
2017-01-06T01:13:06.492Z,927.35
2017-01-06T01:13:23.711Z,927.34
2017-01-06T01:13:40.920Z,927.37
2017-01-06T01:13:58.136Z,927.33
2017-01-06T01:14:15.348Z,927.34
2017-01-06T01:14:32.549Z,927.27
2017-01-06T01:14:49.736Z,927.33
2017-01-06T01:15:06.939Z,927.32
2017-01-06T01:15:24.132Z,927.43
2017-01-06T01:15:41.323Z,927.36
2017-01-06T01:15:58.517Z,927.45
2017-01-06T01:16:15.704Z,927.43
2017-01-06T01:16:32.901Z,927.49
2017-01-06T01:16:50.106Z,927.41
2017-01-06T01:17:07.960Z,927.38
2017-01-06T01:17:25.175Z,927.37
2017-01-06T01:17:42.362Z,927.37
2017-01-06T01:17:59.560Z,927.44
2017-01-06T01:18:16.783Z,927.43
2017-01-06T01:18:33.975Z,927.41
2017-01-06T01:18:51.179Z,927.44
2017-01-06T01:19:08.367Z,927.37
2017-01-06T01:19:25.560Z,927.46
2017-01-06T01:19:42.752Z,927.43
2017-01-06T01:19:59.960Z,927.41
2017-01-06T01:20:17.141Z,927.5
2017-01-06T01:20:34.335Z,927.51
2017-01-06T01:20:51.518Z,927.45
2017-01-06T01:21:08.723Z,927.37
2017-01-06T01:21:25.922Z,927.4
2017-01-06T01:21:43.119Z,927.47
2017-01-06T01:22:00.323Z,927.38
2017-01-06T01:22:17.516Z,927.41
2017-01-06T01:22:34.722Z,927.34
2017-01-06T01:22:51.933Z,927.38
2017-01-06T01:23:09.160Z,927.37
2017-01-06T01:23:26.391Z,927.44
2017-01-06T01:23:43.598Z,927.34
2017-01-06T01:24:00.788Z,927.36
2017-01-06T01:24:17.977Z,927.39
2017-01-06T01:24:35.174Z,927.38
2017-01-06T01:24:52.376Z,927.41
2017-01-06T01:25:09.566Z,927.35
2017-01-06T01:25:26.753Z,927.43
2017-01-06T01:25:43.945Z,927.3
2017-01-06T01:26:01.146Z,927.36
2017-01-06T01:26:18.340Z,927.37
2017-01-06T01:26:35.547Z,927.34
2017-01-06T01:26:52.731Z,927.36
2017-01-06T01:27:09.936Z,927.32
2017-01-06T01:27:27.149Z,927.29
2017-01-06T01:27:44.319Z,927.32
2017-01-06T01:28:01.514Z,927.29
2017-01-06T01:28:18.743Z,927.29
2017-01-06T01:28:35.922Z,927.31
2017-01-06T01:28:53.097Z,927.27
2017-01-06T01:29:10.295Z,927.34
2017-01-06T01:29:27.477Z,927.34
2017-01-06T01:29:44.687Z,927.37
2017-01-06T01:30:01.877Z,927.33
2017-01-06T01:30:19.090Z,927.36
2017-01-06T01:30:36.303Z,927.28
2017-01-06T01:30:53.481Z,927.29
2017-01-06T01:31:10.663Z,927.42
2017-01-06T01:31:27.887Z,927.27
2017-01-06T01:31:45.091Z,927.24
2017-01-06T01:32:02.280Z,927.34
2017-01-06T01:32:19.481Z,927.32
2017-01-06T01:32:36.670Z,927.3
2017-01-06T01:32:53.886Z,927.33
2017-01-06T01:33:11.096Z,927.3
2017-01-06T01:33:28.310Z,927.37
2017-01-06T01:33:45.525Z,927.29
2017-01-06T01:34:02.715Z,927.29
2017-01-06T01:34:19.900Z,927.3
2017-01-06T01:34:37.113Z,927.3
2017-01-06T01:34:54.322Z,927.25
2017-01-06T01:35:11.528Z,927.25
2017-01-06T01:35:28.741Z,927.26
2017-01-06T01:35:45.939Z,927.25
2017-01-06T01:36:03.140Z,927.23
2017-01-06T01:36:20.324Z,927.22
2017-01-06T01:36:37.535Z,927.23
2017-01-06T01:36:54.748Z,927.27
2017-01-06T01:37:11.934Z,927.24
2017-01-06T01:37:29.116Z,927.27
2017-01-06T01:37:46.314Z,927.28
2017-01-06T01:38:03.510Z,927.26
2017-01-06T01:38:20.730Z,927.26
2017-01-06T01:38:37.951Z,927.23
2017-01-06T01:38:55.184Z,927.28
2017-01-06T01:39:12.386Z,927.25
2017-01-06T01:39:29.570Z,927.28
2017-01-06T01:39:46.770Z,927.23
2017-01-06T01:40:03.977Z,927.25
2017-01-06T01:40:21.203Z,927.21
2017-01-06T01:40:38.397Z,927.25
2017-01-06T01:40:55.596Z,927.25
2017-01-06T01:41:12.774Z,927.24
2017-01-06T01:41:29.983Z,927.23
2017-01-06T01:41:47.158Z,927.21
2017-01-06T01:42:04.353Z,927.22
2017-01-06T01:42:21.553Z,927.24
2017-01-06T01:42:38.754Z,927.2
2017-01-06T01:42:55.931Z,927.18
2017-01-06T01:43:13.119Z,927.18
2017-01-06T01:43:30.333Z,927.18
2017-01-06T01:43:47.537Z,927.22
2017-01-06T01:44:04.728Z,927.19
2017-01-06T01:44:21.940Z,927.16
2017-01-06T01:44:39.157Z,927.21
2017-01-06T01:44:56.433Z,927.2
2017-01-06T01:45:13.659Z,927.23
2017-01-06T01:45:30.863Z,927.22
2017-01-06T01:45:48.049Z,927.22
2017-01-06T01:46:05.233Z,927.26
2017-01-06T01:46:22.433Z,927.23
2017-01-06T01:46:39.624Z,927.23
2017-01-06T01:46:56.817Z,927.23
2017-01-06T01:47:14.021Z,927.24
2017-01-06T01:47:31.220Z,927.22
2017-01-06T01:47:48.406Z,927.21
2017-01-06T01:48:05.592Z,927.22
2017-01-06T01:48:22.765Z,927.23
2017-01-06T01:48:39.954Z,927.26
2017-01-06T01:48:57.146Z,927.24
2017-01-06T01:49:14.363Z,927.25
2017-01-06T01:49:31.515Z,927.22
2017-01-06T01:49:48.891Z,927.24
2017-01-06T01:50:06.556Z,927.21
2017-01-06T01:50:24.020Z,927.27
2017-01-06T01:50:41.219Z,927.28
2017-01-06T01:50:58.390Z,927.3
2017-01-06T01:51:15.624Z,927.25
2017-01-06T01:51:32.814Z,927.27
2017-01-06T01:51:50.002Z,927.27
2017-01-06T01:52:07.182Z,927.27
2017-01-06T01:52:24.369Z,927.26
2017-01-06T01:52:41.546Z,927.29
2017-01-06T01:52:58.743Z,927.28
2017-01-06T01:53:15.957Z,927.27
2017-01-06T01:53:33.152Z,927.25
2017-01-06T01:53:50.350Z,927.27
2017-01-06T01:54:07.547Z,927.26
2017-01-06T01:54:24.752Z,927.27
2017-01-06T01:54:41.963Z,927.28
2017-01-06T01:54:59.135Z,927.31
2017-01-06T01:55:16.333Z,927.24
2017-01-06T01:55:33.534Z,927.21
2017-01-06T01:55:50.724Z,927.25
2017-01-06T01:56:07.930Z,927.25
2017-01-06T01:56:25.140Z,927.31
2017-01-06T01:56:42.341Z,927.28
2017-01-06T01:56:59.546Z,927.32
2017-01-06T01:57:16.741Z,927.3
2017-01-06T01:57:33.947Z,927.28
2017-01-06T01:57:51.155Z,927.28
2017-01-06T01:58:08.354Z,927.27
2017-01-06T01:58:25.562Z,927.3
2017-01-06T01:58:42.744Z,927.26
2017-01-06T01:58:59.935Z,927.19
2017-01-06T01:59:17.126Z,927.3
2017-01-06T01:59:34.305Z,927.23
2017-01-06T01:59:51.504Z,927.21
2017-01-06T02:00:40.297Z,927.2
2017-01-06T02:00:57.485Z,927.2
2017-01-06T02:01:14.705Z,927.18
2017-01-06T02:01:38.178Z,927.13
2017-01-06T02:01:55.360Z,927.17
2017-01-06T02:02:12.570Z,927.15
2017-01-06T02:02:29.754Z,927.15
2017-01-06T02:02:46.947Z,927.12
2017-01-06T02:03:04.139Z,927.14
2017-01-06T02:03:21.325Z,927.12
2017-01-06T02:03:38.525Z,927.14
2017-01-06T02:03:55.727Z,927.11
2017-01-06T02:04:12.933Z,927.13
2017-01-06T02:04:30.154Z,927.09
2017-01-06T02:04:47.493Z,927.12
2017-01-06T02:05:04.697Z,927.1
2017-01-06T02:05:21.886Z,927.1
2017-01-06T02:05:39.089Z,927.08
2017-01-06T02:05:56.265Z,927.11
2017-01-06T02:06:13.489Z,927.09
2017-01-06T02:06:30.679Z,927.08
2017-01-06T02:06:47.882Z,927.05
2017-01-06T02:07:05.096Z,927.07
2017-01-06T02:07:22.292Z,927.02
2017-01-06T02:07:39.477Z,927.02
2017-01-06T02:07:56.660Z,927.01
2017-01-06T02:08:13.854Z,927.05
2017-01-06T02:08:31.059Z,927.03
2017-01-06T02:08:48.269Z,927.04
2017-01-06T02:09:05.441Z,927.05
2017-01-06T02:09:22.624Z,927.03
2017-01-06T02:09:39.800Z,927.04
2017-01-06T02:09:57.011Z,927.02
2017-01-06T02:10:14.199Z,926.99
2017-01-06T02:10:31.390Z,926.99
2017-01-06T02:10:48.595Z,927.02
2017-01-06T02:11:05.801Z,927
2017-01-06T02:11:22.989Z,927
2017-01-06T02:11:40.155Z,927.05
2017-01-06T02:11:57.407Z,926.99
2017-01-06T02:12:14.632Z,926.99
2017-01-06T02:12:31.838Z,926.96
2017-01-06T02:12:49.050Z,926.99
2017-01-06T02:13:06.252Z,926.95
2017-01-06T02:13:23.440Z,926.97
2017-01-06T02:13:40.656Z,926.95
2017-01-06T02:13:57.859Z,926.94
2017-01-06T02:14:15.059Z,926.94
2017-01-06T02:14:32.260Z,926.92
2017-01-06T02:14:49.460Z,926.91
2017-01-06T02:15:06.675Z,926.92
2017-01-06T02:15:23.862Z,926.92
2017-01-06T02:15:41.063Z,926.91
2017-01-06T02:15:58.252Z,926.89
2017-01-06T02:16:15.447Z,926.92
2017-01-06T02:16:32.647Z,926.92
2017-01-06T02:16:49.836Z,926.94
2017-01-06T02:17:07.036Z,926.93
2017-01-06T02:17:24.247Z,926.92
2017-01-06T02:17:41.440Z,926.94
2017-01-06T02:17:58.623Z,926.98
2017-01-06T02:18:15.807Z,927.01
2017-01-06T02:18:32.995Z,926.93
2017-01-06T02:18:50.207Z,926.96
2017-01-06T02:19:08.025Z,926.93
2017-01-06T02:19:25.239Z,926.94
2017-01-06T02:19:42.415Z,926.95
2017-01-06T02:19:59.607Z,926.91
2017-01-06T02:20:16.798Z,926.91
2017-01-06T02:20:34.004Z,926.9
2017-01-06T02:20:51.189Z,926.89
2017-01-06T02:21:08.379Z,926.91
2017-01-06T02:21:25.579Z,926.86
2017-01-06T02:21:42.790Z,926.89
2017-01-06T02:21:59.974Z,926.88
2017-01-06T02:22:17.169Z,926.89
2017-01-06T02:22:34.346Z,926.89
2017-01-06T02:22:51.509Z,926.84
2017-01-06T02:23:08.887Z,926.86
2017-01-06T02:23:26.090Z,926.82
2017-01-06T02:23:43.303Z,926.83
2017-01-06T02:24:00.512Z,926.84
2017-01-06T02:24:17.724Z,926.84
2017-01-06T02:24:34.910Z,926.82
2017-01-06T02:24:52.259Z,926.84
2017-01-06T02:25:09.480Z,926.85
2017-01-06T02:25:26.663Z,926.83
2017-01-06T02:25:43.875Z,926.83
2017-01-06T02:26:01.079Z,926.87
2017-01-06T02:26:18.285Z,926.84
2017-01-06T02:26:35.479Z,926.8
2017-01-06T02:26:52.664Z,926.78
2017-01-06T02:27:09.856Z,926.83
2017-01-06T02:27:27.035Z,926.82
2017-01-06T02:27:44.244Z,926.84
2017-01-06T02:28:01.407Z,926.82
2017-01-06T02:28:18.617Z,926.8
2017-01-06T02:28:35.813Z,926.8
2017-01-06T02:28:52.998Z,926.78
2017-01-06T02:29:10.183Z,926.8
2017-01-06T02:29:27.383Z,926.79
2017-01-06T02:29:44.591Z,926.76
2017-01-06T02:30:02.451Z,926.78
2017-01-06T02:30:20.331Z,926.77
2017-01-06T02:30:37.553Z,926.78
2017-01-06T02:30:54.788Z,926.75
2017-01-06T02:31:11.977Z,926.78
2017-01-06T02:31:29.205Z,926.8
2017-01-06T02:31:46.413Z,926.79
2017-01-06T02:32:03.604Z,926.76
2017-01-06T02:32:20.821Z,926.78
2017-01-06T02:32:37.998Z,926.77
2017-01-06T02:32:55.191Z,926.73
2017-01-06T02:33:12.408Z,926.69
2017-01-06T02:33:29.568Z,926.74
2017-01-06T02:33:46.766Z,926.73
2017-01-06T02:34:03.945Z,926.72
2017-01-06T02:34:21.145Z,926.73
2017-01-06T02:34:38.337Z,926.68
2017-01-06T02:34:55.520Z,926.71
2017-01-06T02:35:12.728Z,926.7
2017-01-06T02:35:29.933Z,926.71
2017-01-06T02:35:47.142Z,926.66
2017-01-06T02:36:04.352Z,926.65
2017-01-06T02:36:21.552Z,926.68
2017-01-06T02:36:38.761Z,926.68
2017-01-06T02:36:55.952Z,926.69
2017-01-06T02:37:13.155Z,926.73
2017-01-06T02:37:30.332Z,926.71
2017-01-06T02:37:47.508Z,926.71
2017-01-06T02:38:04.701Z,926.72
2017-01-06T02:38:21.883Z,926.75
2017-01-06T02:38:39.077Z,926.76
2017-01-06T02:38:56.272Z,926.74
2017-01-06T02:39:13.471Z,926.78
2017-01-06T02:39:30.685Z,926.76
2017-01-06T02:39:47.865Z,926.8
2017-01-06T02:40:05.053Z,926.74
2017-01-06T02:40:22.226Z,926.74
2017-01-06T02:40:39.412Z,926.74
2017-01-06T02:40:56.590Z,926.76
2017-01-06T02:41:13.808Z,926.75
2017-01-06T02:41:31.014Z,926.84
2017-01-06T02:41:48.231Z,926.79
2017-01-06T02:42:05.430Z,926.82
2017-01-06T02:42:22.595Z,926.83
2017-01-06T02:42:39.804Z,926.78
2017-01-06T02:42:56.988Z,926.8
2017-01-06T02:43:14.222Z,926.83
2017-01-06T02:43:31.381Z,926.74
2017-01-06T02:43:48.582Z,926.82
2017-01-06T02:44:05.800Z,926.89
2017-01-06T02:44:23.000Z,926.9
2017-01-06T02:44:40.181Z,926.86
2017-01-06T02:44:57.541Z,926.73
2017-01-06T02:45:14.720Z,926.78
2017-01-06T02:45:31.937Z,926.72
2017-01-06T02:45:49.115Z,926.76
2017-01-06T02:46:06.307Z,926.72
2017-01-06T02:46:23.549Z,926.72
2017-01-06T02:46:40.738Z,926.77
2017-01-06T02:46:57.942Z,926.7
2017-01-06T02:47:15.160Z,926.82
2017-01-06T02:47:33.013Z,926.75
2017-01-06T02:47:50.204Z,926.7
2017-01-06T02:48:07.391Z,926.74
2017-01-06T02:48:24.586Z,926.68
2017-01-06T02:48:41.803Z,926.73
2017-01-06T02:48:59.009Z,926.68
2017-01-06T02:49:16.467Z,926.65
2017-01-06T02:49:36.328Z,926.67
2017-01-06T02:49:53.532Z,926.68
2017-01-06T02:50:10.734Z,926.68
2017-01-06T02:50:27.937Z,926.64
2017-01-06T02:50:45.122Z,926.63
2017-01-06T02:51:02.315Z,926.65
2017-01-06T02:51:19.536Z,926.63
2017-01-06T02:51:36.721Z,926.64
2017-01-06T02:51:53.927Z,926.64
2017-01-06T02:52:11.116Z,926.63
2017-01-06T02:52:28.318Z,926.63
2017-01-06T02:52:45.530Z,926.66
2017-01-06T02:53:02.710Z,926.65
2017-01-06T02:53:19.910Z,926.64
2017-01-06T02:53:37.120Z,926.65
2017-01-06T02:53:54.334Z,926.61
2017-01-06T02:54:12.168Z,926.63
2017-01-06T02:54:29.363Z,926.61
2017-01-06T02:54:46.822Z,926.6
2017-01-06T02:55:04.045Z,926.6
2017-01-06T02:55:21.238Z,926.58
2017-01-06T02:55:38.427Z,926.62
2017-01-06T02:55:55.633Z,926.62
2017-01-06T02:56:12.838Z,926.56
2017-01-06T02:56:30.036Z,926.57
2017-01-06T02:56:47.237Z,926.55
2017-01-06T02:57:05.081Z,926.54
2017-01-06T02:57:22.271Z,926.55
2017-01-06T02:57:39.468Z,926.54
2017-01-06T02:57:56.666Z,926.52
2017-01-06T02:58:13.860Z,926.52
2017-01-06T02:58:31.055Z,926.51
2017-01-06T02:58:48.231Z,926.59
2017-01-06T02:59:05.435Z,926.48
2017-01-06T02:59:22.630Z,926.47
2017-01-06T02:59:39.816Z,926.45
2017-01-06T02:59:57.029Z,926.43
2017-01-06T03:00:14.228Z,926.36
2017-01-06T03:00:31.415Z,926.5
2017-01-06T03:00:51.164Z,926.39
2017-01-06T03:01:08.356Z,926.4
2017-01-06T03:01:25.553Z,926.39
2017-01-06T03:01:42.758Z,926.38
2017-01-06T03:01:59.961Z,926.37
2017-01-06T03:02:17.140Z,926.41
2017-01-06T03:02:34.982Z,926.36
2017-01-06T03:02:52.177Z,926.39
2017-01-06T03:03:09.378Z,926.32
2017-01-06T03:03:27.202Z,926.36
2017-01-06T03:03:44.424Z,926.32
2017-01-06T03:04:01.607Z,926.35
2017-01-06T03:04:18.831Z,926.29
2017-01-06T03:04:36.038Z,926.3
2017-01-06T03:04:53.263Z,926.3
2017-01-06T03:05:10.437Z,926.32
2017-01-06T03:05:27.632Z,926.31
2017-01-06T03:05:44.811Z,926.24
2017-01-06T03:06:02.017Z,926.27
2017-01-06T03:06:19.237Z,926.29
2017-01-06T03:06:36.459Z,926.3
2017-01-06T03:06:53.657Z,926.31
2017-01-06T03:07:10.852Z,926.27
2017-01-06T03:07:28.063Z,926.21
2017-01-06T03:07:45.276Z,926.23
2017-01-06T03:08:02.464Z,926.22
2017-01-06T03:08:19.670Z,926.22
2017-01-06T03:08:36.864Z,926.19
2017-01-06T03:08:54.060Z,926.17
2017-01-06T03:09:11.262Z,926.17
2017-01-06T03:09:28.454Z,926.16
2017-01-06T03:09:45.643Z,926.15
2017-01-06T03:10:02.877Z,926.15
2017-01-06T03:10:20.105Z,926.09
2017-01-06T03:10:37.303Z,926.12
2017-01-06T03:10:54.517Z,926.15
2017-01-06T03:11:11.707Z,926.1
2017-01-06T03:11:28.863Z,926.09
2017-01-06T03:11:46.070Z,926.08
2017-01-06T03:12:03.252Z,926.07
2017-01-06T03:12:20.435Z,926.08
2017-01-06T03:12:37.600Z,926.06
2017-01-06T03:12:54.769Z,926.08
2017-01-06T03:13:11.963Z,926.03
2017-01-06T03:13:29.155Z,926.04
2017-01-06T03:13:46.329Z,926.01
2017-01-06T03:14:03.500Z,925.99
2017-01-06T03:14:20.714Z,925.98
2017-01-06T03:14:37.910Z,926.01
2017-01-06T03:14:55.198Z,925.97
2017-01-06T03:15:12.407Z,925.96
2017-01-06T03:15:29.626Z,925.99
2017-01-06T03:15:46.834Z,925.99
2017-01-06T03:16:04.035Z,925.99
2017-01-06T03:16:21.229Z,925.98
2017-01-06T03:16:38.445Z,925.94
2017-01-06T03:16:55.659Z,926
2017-01-06T03:17:12.872Z,925.97
2017-01-06T03:17:30.079Z,926
2017-01-06T03:17:47.279Z,925.96
2017-01-06T03:18:04.562Z,926
2017-01-06T03:18:21.770Z,926.01
2017-01-06T03:18:38.995Z,925.98
2017-01-06T03:18:56.181Z,926
2017-01-06T03:19:13.375Z,925.97
2017-01-06T03:19:30.548Z,925.96
2017-01-06T03:19:47.883Z,926
2017-01-06T03:20:05.073Z,926.01
2017-01-06T03:20:22.258Z,926
2017-01-06T03:20:39.461Z,926.02
2017-01-06T03:20:57.300Z,926.01
2017-01-06T03:21:14.473Z,926.01
2017-01-06T03:21:31.646Z,926
2017-01-06T03:21:48.862Z,925.97
2017-01-06T03:22:06.062Z,925.95
2017-01-06T03:22:23.234Z,925.95
2017-01-06T03:22:40.447Z,925.95
2017-01-06T03:22:57.657Z,925.97
2017-01-06T03:23:14.855Z,925.92
2017-01-06T03:23:32.043Z,925.91
2017-01-06T03:23:49.219Z,925.96
2017-01-06T03:24:06.435Z,925.9
2017-01-06T03:24:23.679Z,925.92
2017-01-06T03:24:40.853Z,925.95
2017-01-06T03:24:58.052Z,925.89
2017-01-06T03:25:15.262Z,925.93
2017-01-06T03:25:32.472Z,925.91
2017-01-06T03:25:49.676Z,925.98
2017-01-06T03:26:06.866Z,925.97
2017-01-06T03:26:24.068Z,925.94
2017-01-06T03:26:41.274Z,925.94
2017-01-06T03:26:58.484Z,925.94
2017-01-06T03:27:15.701Z,925.96
2017-01-06T03:27:32.898Z,925.98
2017-01-06T03:27:50.107Z,925.92
2017-01-06T03:28:07.299Z,925.99
2017-01-06T03:28:24.480Z,925.96
2017-01-06T03:28:41.696Z,925.94
2017-01-06T03:28:58.895Z,925.97
2017-01-06T03:29:16.093Z,925.97
2017-01-06T03:29:33.935Z,925.97
2017-01-06T03:29:51.125Z,925.99
2017-01-06T03:30:08.336Z,925.98
2017-01-06T03:30:25.537Z,926
2017-01-06T03:30:42.720Z,926
2017-01-06T03:30:59.924Z,925.97
2017-01-06T03:31:17.097Z,925.97
2017-01-06T03:31:34.306Z,925.95
2017-01-06T03:31:51.504Z,926.01
2017-01-06T03:32:08.704Z,925.99
2017-01-06T03:32:25.902Z,925.98
2017-01-06T03:32:43.109Z,925.96
2017-01-06T03:33:00.298Z,925.99
2017-01-06T03:33:17.545Z,925.98
2017-01-06T03:33:34.740Z,925.95
2017-01-06T03:33:51.919Z,925.94
2017-01-06T03:34:09.152Z,925.99
2017-01-06T03:34:26.352Z,925.97
2017-01-06T03:34:43.535Z,925.96
2017-01-06T03:35:00.756Z,925.99
2017-01-06T03:35:17.968Z,925.94
2017-01-06T03:35:35.155Z,925.96
2017-01-06T03:35:52.367Z,925.91
2017-01-06T03:36:09.565Z,925.93
2017-01-06T03:36:26.776Z,925.91